sensor_id;sensor_type;location;lat;lon;timestamp;pressure;altitude;pressure_sealevel;temperature;humidity
79527;BME280;68974;47.754;-3.364;2023-08-01T00:01:00;100870.31;;;17.41;91.07
79527;BME280;68974;47.754;-3.364;2023-08-01T00:03:25;100857.41;;;17.36;91.05
79527;BME280;68974;47.754;-3.364;2023-08-01T00:05:51;100871.13;;;17.32;90.85
79527;BME280;68974;47.754;-3.364;2023-08-01T00:08:16;100863.44;;;17.29;90.50
79527;BME280;68974;47.754;-3.364;2023-08-01T00:10:42;100875.34;;;17.30;90.61
79527;BME280;68974;47.754;-3.364;2023-08-01T00:13:08;100881.53;;;17.27;90.24
79527;BME280;68974;47.754;-3.364;2023-08-01T00:15:34;100882.00;;;17.20;90.06
79527;BME280;68974;47.754;-3.364;2023-08-01T00:18:00;100880.03;;;17.12;89.78
79527;BME280;68974;47.754;-3.364;2023-08-01T00:20:25;100876.78;;;17.10;89.66
79527;BME280;68974;47.754;-3.364;2023-08-01T00:22:51;100890.31;;;17.12;89.51
79527;BME280;68974;47.754;-3.364;2023-08-01T00:25:17;100902.88;;;17.09;89.24
79527;BME280;68974;47.754;-3.364;2023-08-01T00:27:43;100894.72;;;17.04;89.38
79527;BME280;68974;47.754;-3.364;2023-08-01T00:30:08;100903.16;;;16.99;89.31
79527;BME280;68974;47.754;-3.364;2023-08-01T00:32:34;100903.94;;;16.91;89.02
79527;BME280;68974;47.754;-3.364;2023-08-01T00:35:00;100899.22;;;16.92;88.86
79527;BME280;68974;47.754;-3.364;2023-08-01T00:37:25;100900.16;;;16.87;88.84
79527;BME280;68974;47.754;-3.364;2023-08-01T00:39:51;100916.19;;;16.90;88.34
79527;BME280;68974;47.754;-3.364;2023-08-01T00:42:16;100921.38;;;16.83;88.46
79527;BME280;68974;47.754;-3.364;2023-08-01T00:44:41;100919.25;;;16.80;88.12
79527;BME280;68974;47.754;-3.364;2023-08-01T00:47:08;100931.91;;;16.72;88.65
79527;BME280;68974;47.754;-3.364;2023-08-01T00:49:34;100919.34;;;16.66;88.13
79527;BME280;68974;47.754;-3.364;2023-08-01T00:51:59;100920.78;;;16.64;88.06
79527;BME280;68974;47.754;-3.364;2023-08-01T00:54:26;100929.75;;;16.61;88.59
79527;BME280;68974;47.754;-3.364;2023-08-01T00:56:52;100921.06;;;16.62;88.59
79527;BME280;68974;47.754;-3.364;2023-08-01T00:59:18;100933.50;;;16.65;87.91
79527;BME280;68974;47.754;-3.364;2023-08-01T01:01:44;100932.16;;;16.62;88.08
79527;BME280;68974;47.754;-3.364;2023-08-01T01:04:09;100932.00;;;16.59;88.38
79527;BME280;68974;47.754;-3.364;2023-08-01T01:06:41;100931.28;;;16.53;88.59
79527;BME280;68974;47.754;-3.364;2023-08-01T01:09:19;100938.75;;;16.53;88.90
79527;BME280;68974;47.754;-3.364;2023-08-01T01:11:46;100936.50;;;16.55;88.71
79527;BME280;68974;47.754;-3.364;2023-08-01T01:14:12;100941.06;;;16.51;88.57
79527;BME280;68974;47.754;-3.364;2023-08-01T01:16:37;100932.88;;;16.45;88.68
79527;BME280;68974;47.754;-3.364;2023-08-01T01:19:06;100934.50;;;16.46;88.78
79527;BME280;68974;47.754;-3.364;2023-08-01T01:21:37;100936.13;;;16.47;88.39
79527;BME280;68974;47.754;-3.364;2023-08-01T01:24:04;100946.38;;;16.47;88.56
79527;BME280;68974;47.754;-3.364;2023-08-01T01:26:32;100942.31;;;16.44;88.36
79527;BME280;68974;47.754;-3.364;2023-08-01T01:28:58;100932.03;;;16.45;88.59
79527;BME280;68974;47.754;-3.364;2023-08-01T01:31:23;100935.13;;;16.43;88.71
79527;BME280;68974;47.754;-3.364;2023-08-01T01:33:49;100945.09;;;16.44;89.31
79527;BME280;68974;47.754;-3.364;2023-08-01T01:36:15;100949.28;;;16.42;89.57
79527;BME280;68974;47.754;-3.364;2023-08-01T01:38:40;100953.22;;;16.41;89.58
79527;BME280;68974;47.754;-3.364;2023-08-01T01:41:05;100956.81;;;16.41;89.38
79527;BME280;68974;47.754;-3.364;2023-08-01T01:43:31;100962.66;;;16.40;90.16
79527;BME280;68974;47.754;-3.364;2023-08-01T01:45:56;100959.59;;;16.41;89.79
79527;BME280;68974;47.754;-3.364;2023-08-01T01:48:22;100959.44;;;16.24;89.84
79527;BME280;68974;47.754;-3.364;2023-08-01T01:50:47;100964.97;;;16.24;89.73
79527;BME280;68974;47.754;-3.364;2023-08-01T01:53:12;100968.38;;;16.21;89.96
79527;BME280;68974;47.754;-3.364;2023-08-01T01:55:38;100971.97;;;16.22;90.18
79527;BME280;68974;47.754;-3.364;2023-08-01T01:58:03;100969.22;;;16.22;90.22
79527;BME280;68974;47.754;-3.364;2023-08-01T02:00:30;100968.28;;;16.26;90.41
79527;BME280;68974;47.754;-3.364;2023-08-01T02:02:55;100962.63;;;16.18;90.04
79527;BME280;68974;47.754;-3.364;2023-08-01T02:05:20;100970.16;;;16.17;90.31
79527;BME280;68974;47.754;-3.364;2023-08-01T02:07:46;100977.31;;;16.18;90.13
79527;BME280;68974;47.754;-3.364;2023-08-01T02:10:11;100965.22;;;16.14;90.18
79527;BME280;68974;47.754;-3.364;2023-08-01T02:12:36;100977.75;;;16.12;90.22
79527;BME280;68974;47.754;-3.364;2023-08-01T02:15:02;100971.47;;;16.20;89.59
79527;BME280;68974;47.754;-3.364;2023-08-01T02:17:27;100972.81;;;16.22;89.46
79527;BME280;68974;47.754;-3.364;2023-08-01T02:19:54;100975.81;;;16.12;89.66
79527;BME280;68974;47.754;-3.364;2023-08-01T02:22:19;100974.28;;;16.06;89.68
79527;BME280;68974;47.754;-3.364;2023-08-01T02:24:45;100971.00;;;16.04;90.02
79527;BME280;68974;47.754;-3.364;2023-08-01T02:27:10;100969.88;;;16.05;89.97
79527;BME280;68974;47.754;-3.364;2023-08-01T02:29:35;100968.34;;;15.99;89.86
79527;BME280;68974;47.754;-3.364;2023-08-01T02:32:01;100966.50;;;15.94;90.39
79527;BME280;68974;47.754;-3.364;2023-08-01T02:34:26;100974.00;;;15.94;90.39
79527;BME280;68974;47.754;-3.364;2023-08-01T02:36:52;100981.81;;;15.92;90.26
79527;BME280;68974;47.754;-3.364;2023-08-01T02:39:18;100975.94;;;15.93;89.78
79527;BME280;68974;47.754;-3.364;2023-08-01T02:41:43;100979.75;;;15.97;89.80
79527;BME280;68974;47.754;-3.364;2023-08-01T02:44:09;100974.91;;;15.89;89.48
79527;BME280;68974;47.754;-3.364;2023-08-01T02:46:34;100963.34;;;15.87;89.88
79527;BME280;68974;47.754;-3.364;2023-08-01T02:48:59;100973.09;;;15.85;90.02
79527;BME280;68974;47.754;-3.364;2023-08-01T02:51:25;100964.28;;;15.83;89.75
79527;BME280;68974;47.754;-3.364;2023-08-01T02:53:50;100959.53;;;15.83;89.88
79527;BME280;68974;47.754;-3.364;2023-08-01T02:56:16;100951.56;;;15.82;89.56
79527;BME280;68974;47.754;-3.364;2023-08-01T02:58:41;100957.09;;;15.82;89.79
79527;BME280;68974;47.754;-3.364;2023-08-01T03:01:08;100951.03;;;15.80;89.91
79527;BME280;68974;47.754;-3.364;2023-08-01T03:03:35;100956.09;;;15.78;90.00
79527;BME280;68974;47.754;-3.364;2023-08-01T03:06:01;100956.69;;;15.75;90.11
79527;BME280;68974;47.754;-3.364;2023-08-01T03:08:26;100955.69;;;15.71;90.23
79527;BME280;68974;47.754;-3.364;2023-08-01T03:10:53;100958.63;;;15.74;89.73
79527;BME280;68974;47.754;-3.364;2023-08-01T03:13:19;100960.50;;;15.65;89.93
79527;BME280;68974;47.754;-3.364;2023-08-01T03:15:44;100974.97;;;15.62;90.01
79527;BME280;68974;47.754;-3.364;2023-08-01T03:18:09;100965.03;;;15.61;90.28
79527;BME280;68974;47.754;-3.364;2023-08-01T03:20:35;100965.31;;;15.59;90.60
79527;BME280;68974;47.754;-3.364;2023-08-01T03:23:00;100971.19;;;15.58;90.62
79527;BME280;68974;47.754;-3.364;2023-08-01T03:25:26;100970.25;;;15.63;90.45
79527;BME280;68974;47.754;-3.364;2023-08-01T03:27:51;100971.69;;;15.60;90.50
79527;BME280;68974;47.754;-3.364;2023-08-01T03:30:16;100966.59;;;15.53;90.61
79527;BME280;68974;47.754;-3.364;2023-08-01T03:32:42;100964.38;;;15.50;90.83
79527;BME280;68974;47.754;-3.364;2023-08-01T03:35:07;100961.59;;;15.50;90.74
79527;BME280;68974;47.754;-3.364;2023-08-01T03:37:33;100962.25;;;15.47;90.92
79527;BME280;68974;47.754;-3.364;2023-08-01T03:39:58;100956.69;;;15.47;91.34
79527;BME280;68974;47.754;-3.364;2023-08-01T03:42:23;100962.25;;;15.47;91.17
79527;BME280;68974;47.754;-3.364;2023-08-01T03:44:49;100955.69;;;15.43;91.39
79527;BME280;68974;47.754;-3.364;2023-08-01T03:47:14;100959.47;;;15.47;91.32
79527;BME280;68974;47.754;-3.364;2023-08-01T03:49:40;100953.41;;;15.45;91.26
79527;BME280;68974;47.754;-3.364;2023-08-01T03:52:06;100955.56;;;15.48;91.16
79527;BME280;68974;47.754;-3.364;2023-08-01T03:54:31;100947.28;;;15.48;91.11
79527;BME280;68974;47.754;-3.364;2023-08-01T03:56:56;100955.69;;;15.43;91.24
79527;BME280;68974;47.754;-3.364;2023-08-01T03:59:22;100956.28;;;15.40;91.33
79527;BME280;68974;47.754;-3.364;2023-08-01T04:01:47;100960.19;;;15.39;91.54
79527;BME280;68974;47.754;-3.364;2023-08-01T04:04:13;100964.09;;;15.38;91.58
79527;BME280;68974;47.754;-3.364;2023-08-01T04:06:38;100969.63;;;15.38;91.66
79527;BME280;68974;47.754;-3.364;2023-08-01T04:09:04;100967.97;;;15.37;91.83
79527;BME280;68974;47.754;-3.364;2023-08-01T04:11:29;100981.00;;;15.37;91.77
79527;BME280;68974;47.754;-3.364;2023-08-01T04:13:55;100977.69;;;15.35;91.78
79527;BME280;68974;47.754;-3.364;2023-08-01T04:16:21;100973.00;;;15.35;91.94
79527;BME280;68974;47.754;-3.364;2023-08-01T04:18:47;100982.94;;;15.36;91.89
79527;BME280;68974;47.754;-3.364;2023-08-01T04:21:15;100975.75;;;15.35;91.95
79527;BME280;68974;47.754;-3.364;2023-08-01T04:23:41;100972.28;;;15.43;91.66
79527;BME280;68974;47.754;-3.364;2023-08-01T04:26:06;100979.16;;;15.46;92.10
79527;BME280;68974;47.754;-3.364;2023-08-01T04:28:33;100973.13;;;15.57;91.55
79527;BME280;68974;47.754;-3.364;2023-08-01T04:30:58;100980.81;;;15.60;91.73
79527;BME280;68974;47.754;-3.364;2023-08-01T04:33:23;100976.19;;;15.56;91.58
79527;BME280;68974;47.754;-3.364;2023-08-01T04:35:49;100972.31;;;15.57;91.50
79527;BME280;68974;47.754;-3.364;2023-08-01T04:38:14;100973.41;;;15.70;91.15
79527;BME280;68974;47.754;-3.364;2023-08-01T04:40:40;100971.66;;;15.74;90.71
79527;BME280;68974;47.754;-3.364;2023-08-01T04:43:05;100972.28;;;15.71;91.08
79527;BME280;68974;47.754;-3.364;2023-08-01T04:45:31;100974.34;;;15.65;91.16
79527;BME280;68974;47.754;-3.364;2023-08-01T04:47:56;100974.44;;;15.60;91.39
79527;BME280;68974;47.754;-3.364;2023-08-01T04:50:21;100973.63;;;15.59;91.54
79527;BME280;68974;47.754;-3.364;2023-08-01T04:52:47;100968.63;;;15.62;91.87
79527;BME280;68974;47.754;-3.364;2023-08-01T04:55:12;100970.84;;;15.59;91.52
79527;BME280;68974;47.754;-3.364;2023-08-01T04:57:37;100978.47;;;15.68;91.43
79527;BME280;68974;47.754;-3.364;2023-08-01T05:00:04;100970.66;;;15.70;91.66
79527;BME280;68974;47.754;-3.364;2023-08-01T05:02:29;100979.66;;;15.75;91.41
79527;BME280;68974;47.754;-3.364;2023-08-01T05:04:55;100974.31;;;15.79;91.71
79527;BME280;68974;47.754;-3.364;2023-08-01T05:07:20;100973.50;;;15.92;91.31
79527;BME280;68974;47.754;-3.364;2023-08-01T05:09:46;100968.16;;;15.95;91.30
79527;BME280;68974;47.754;-3.364;2023-08-01T05:12:11;100971.84;;;15.91;91.27
79527;BME280;68974;47.754;-3.364;2023-08-01T05:14:36;100980.69;;;15.93;91.08
79527;BME280;68974;47.754;-3.364;2023-08-01T05:17:02;100985.78;;;15.99;90.59
79527;BME280;68974;47.754;-3.364;2023-08-01T05:19:27;100989.91;;;16.02;90.41
79527;BME280;68974;47.754;-3.364;2023-08-01T05:21:53;100987.63;;;16.04;90.52
79527;BME280;68974;47.754;-3.364;2023-08-01T05:24:18;100992.31;;;16.17;90.32
79527;BME280;68974;47.754;-3.364;2023-08-01T05:26:47;100990.22;;;16.23;90.49
79527;BME280;68974;47.754;-3.364;2023-08-01T05:29:12;100993.09;;;16.31;90.13
79527;BME280;68974;47.754;-3.364;2023-08-01T05:31:37;100993.69;;;16.28;89.88
79527;BME280;68974;47.754;-3.364;2023-08-01T05:34:03;100996.16;;;16.30;89.59
79527;BME280;68974;47.754;-3.364;2023-08-01T05:36:28;101001.91;;;16.33;89.69
79527;BME280;68974;47.754;-3.364;2023-08-01T05:38:54;100993.69;;;16.28;89.95
79527;BME280;68974;47.754;-3.364;2023-08-01T05:41:19;100982.84;;;16.32;89.67
79527;BME280;68974;47.754;-3.364;2023-08-01T05:43:47;100991.94;;;16.32;89.22
79527;BME280;68974;47.754;-3.364;2023-08-01T05:46:13;101003.53;;;16.34;89.60
79527;BME280;68974;47.754;-3.364;2023-08-01T05:48:38;100996.50;;;16.51;88.42
79527;BME280;68974;47.754;-3.364;2023-08-01T05:51:04;100997.47;;;16.46;88.53
79527;BME280;68974;47.754;-3.364;2023-08-01T05:53:29;100998.06;;;16.43;88.35
79527;BME280;68974;47.754;-3.364;2023-08-01T05:55:55;101010.50;;;16.45;88.46
79527;BME280;68974;47.754;-3.364;2023-08-01T05:58:20;101003.72;;;16.52;88.82
79527;BME280;68974;47.754;-3.364;2023-08-01T06:00:46;101008.09;;;16.53;88.55
79527;BME280;68974;47.754;-3.364;2023-08-01T06:03:11;101001.31;;;16.59;88.65
79527;BME280;68974;47.754;-3.364;2023-08-01T06:05:37;101004.09;;;16.59;88.82
79527;BME280;68974;47.754;-3.364;2023-08-01T06:08:03;101004.94;;;16.59;88.51
79527;BME280;68974;47.754;-3.364;2023-08-01T06:10:28;101013.03;;;16.56;88.00
79527;BME280;68974;47.754;-3.364;2023-08-01T06:12:54;101011.50;;;16.50;88.63
79527;BME280;68974;47.754;-3.364;2023-08-01T06:15:19;101009.44;;;16.55;88.75
79527;BME280;68974;47.754;-3.364;2023-08-01T06:17:46;101013.75;;;16.47;88.31
79527;BME280;68974;47.754;-3.364;2023-08-01T06:20:11;101016.03;;;16.45;88.12
79527;BME280;68974;47.754;-3.364;2023-08-01T06:22:38;101007.78;;;16.54;87.90
79527;BME280;68974;47.754;-3.364;2023-08-01T06:25:03;101022.50;;;16.77;86.82
79527;BME280;68974;47.754;-3.364;2023-08-01T06:27:29;101026.91;;;17.00;86.52
79527;BME280;68974;47.754;-3.364;2023-08-01T06:29:54;101013.00;;;17.22;85.33
79527;BME280;68974;47.754;-3.364;2023-08-01T06:32:20;101004.75;;;17.40;84.37
79527;BME280;68974;47.754;-3.364;2023-08-01T06:34:45;101005.09;;;17.47;83.00
79527;BME280;68974;47.754;-3.364;2023-08-01T06:37:10;101022.59;;;17.47;83.37
79527;BME280;68974;47.754;-3.364;2023-08-01T06:39:36;101008.31;;;17.40;83.93
79527;BME280;68974;47.754;-3.364;2023-08-01T06:42:01;101024.97;;;17.31;83.21
79527;BME280;68974;47.754;-3.364;2023-08-01T06:44:28;101018.97;;;17.47;82.53
79527;BME280;68974;47.754;-3.364;2023-08-01T06:46:53;101023.19;;;17.66;82.22
79527;BME280;68974;47.754;-3.364;2023-08-01T06:49:18;101029.25;;;17.77;81.46
79527;BME280;68974;47.754;-3.364;2023-08-01T06:51:44;101036.91;;;17.63;81.55
79527;BME280;68974;47.754;-3.364;2023-08-01T06:54:09;101039.16;;;17.61;82.18
79527;BME280;68974;47.754;-3.364;2023-08-01T06:56:35;101032.78;;;17.60;81.94
79527;BME280;68974;47.754;-3.364;2023-08-01T06:59:00;101034.00;;;17.46;82.26
79527;BME280;68974;47.754;-3.364;2023-08-01T07:01:25;101050.94;;;17.36;83.39
79527;BME280;68974;47.754;-3.364;2023-08-01T07:03:51;101054.88;;;17.35;83.70
79527;BME280;68974;47.754;-3.364;2023-08-01T07:06:18;101053.50;;;17.23;83.68
79527;BME280;68974;47.754;-3.364;2023-08-01T07:08:43;101055.28;;;17.19;84.25
79527;BME280;68974;47.754;-3.364;2023-08-01T07:11:09;101058.41;;;17.26;83.95
79527;BME280;68974;47.754;-3.364;2023-08-01T07:13:34;101059.63;;;17.34;84.53
79527;BME280;68974;47.754;-3.364;2023-08-01T07:16:00;101057.84;;;17.38;85.09
79527;BME280;68974;47.754;-3.364;2023-08-01T07:18:25;101064.34;;;17.33;84.91
79527;BME280;68974;47.754;-3.364;2023-08-01T07:21:01;101061.53;;;17.25;85.90
79527;BME280;68974;47.754;-3.364;2023-08-01T07:23:26;101068.53;;;17.22;85.95
79527;BME280;68974;47.754;-3.364;2023-08-01T07:25:52;101061.19;;;17.26;85.74
79527;BME280;68974;47.754;-3.364;2023-08-01T07:28:17;101058.09;;;17.28;85.79
79527;BME280;68974;47.754;-3.364;2023-08-01T07:30:42;101056.22;;;17.46;85.45
79527;BME280;68974;47.754;-3.364;2023-08-01T07:33:08;101047.19;;;17.40;84.65
79527;BME280;68974;47.754;-3.364;2023-08-01T07:35:33;101046.38;;;17.62;84.36
79527;BME280;68974;47.754;-3.364;2023-08-01T07:37:58;101042.94;;;17.65;84.26
79527;BME280;68974;47.754;-3.364;2023-08-01T07:40:24;101040.56;;;17.50;83.84
79527;BME280;68974;47.754;-3.364;2023-08-01T07:42:50;101048.41;;;17.48;84.00
79527;BME280;68974;47.754;-3.364;2023-08-01T07:45:15;101049.31;;;17.35;84.91
79527;BME280;68974;47.754;-3.364;2023-08-01T07:47:41;101055.50;;;17.31;85.34
79527;BME280;68974;47.754;-3.364;2023-08-01T07:50:06;101046.03;;;17.32;85.81
79527;BME280;68974;47.754;-3.364;2023-08-01T07:52:32;101050.59;;;17.28;83.92
79527;BME280;68974;47.754;-3.364;2023-08-01T07:54:57;101038.75;;;17.14;84.32
79527;BME280;68974;47.754;-3.364;2023-08-01T07:57:23;101056.25;;;17.15;84.24
79527;BME280;68974;47.754;-3.364;2023-08-01T07:59:49;101053.38;;;17.06;84.34
79527;BME280;68974;47.754;-3.364;2023-08-01T08:02:14;101057.97;;;17.11;85.09
79527;BME280;68974;47.754;-3.364;2023-08-01T08:04:39;101050.03;;;17.18;84.09
79527;BME280;68974;47.754;-3.364;2023-08-01T08:07:05;101053.34;;;17.20;84.45
79527;BME280;68974;47.754;-3.364;2023-08-01T08:09:30;101058.91;;;17.28;84.82
79527;BME280;68974;47.754;-3.364;2023-08-01T08:11:55;101054.00;;;17.25;84.91
79527;BME280;68974;47.754;-3.364;2023-08-01T08:14:24;101058.88;;;17.20;84.85
79527;BME280;68974;47.754;-3.364;2023-08-01T08:16:50;101054.69;;;17.31;84.94
79527;BME280;68974;47.754;-3.364;2023-08-01T08:19:16;101044.50;;;17.49;84.98
79527;BME280;68974;47.754;-3.364;2023-08-01T08:21:41;101054.81;;;17.57;84.75
79527;BME280;68974;47.754;-3.364;2023-08-01T08:24:06;101059.47;;;17.70;83.96
79527;BME280;68974;47.754;-3.364;2023-08-01T08:26:32;101062.59;;;17.77;84.05
79527;BME280;68974;47.754;-3.364;2023-08-01T08:29:02;101045.97;;;17.94;84.30
79527;BME280;68974;47.754;-3.364;2023-08-01T08:31:27;101047.53;;;18.17;83.58
79527;BME280;68974;47.754;-3.364;2023-08-01T08:33:53;101046.75;;;18.60;81.20
79527;BME280;68974;47.754;-3.364;2023-08-01T08:36:18;101047.22;;;18.88;79.56
79527;BME280;68974;47.754;-3.364;2023-08-01T08:38:44;101039.53;;;18.93;78.86
79527;BME280;68974;47.754;-3.364;2023-08-01T08:41:21;101050.50;;;18.73;79.02
79527;BME280;68974;47.754;-3.364;2023-08-01T08:43:49;101058.34;;;18.45;79.92
79527;BME280;68974;47.754;-3.364;2023-08-01T08:46:15;101059.63;;;18.39;80.37
79527;BME280;68974;47.754;-3.364;2023-08-01T08:48:42;101061.44;;;18.35;80.45
79527;BME280;68974;47.754;-3.364;2023-08-01T08:51:09;101059.94;;;18.20;81.29
79527;BME280;68974;47.754;-3.364;2023-08-01T08:53:35;101062.03;;;18.06;81.59
79527;BME280;68974;47.754;-3.364;2023-08-01T08:56:02;101043.69;;;17.96;80.75
79527;BME280;68974;47.754;-3.364;2023-08-01T08:58:29;101052.56;;;17.98;80.78
79527;BME280;68974;47.754;-3.364;2023-08-01T09:00:56;101036.34;;;18.00;80.96
79527;BME280;68974;47.754;-3.364;2023-08-01T09:03:23;101045.66;;;17.87;81.32
79527;BME280;68974;47.754;-3.364;2023-08-01T09:05:50;101051.81;;;17.84;81.26
79527;BME280;68974;47.754;-3.364;2023-08-01T09:08:18;101060.16;;;17.84;82.61
79527;BME280;68974;47.754;-3.364;2023-08-01T09:10:46;101054.97;;;17.91;81.55
79527;BME280;68974;47.754;-3.364;2023-08-01T09:13:11;101063.16;;;17.96;81.88
79527;BME280;68974;47.754;-3.364;2023-08-01T09:15:37;101057.44;;;18.01;81.05
79527;BME280;68974;47.754;-3.364;2023-08-01T09:18:06;101066.47;;;18.07;80.58
79527;BME280;68974;47.754;-3.364;2023-08-01T09:20:46;101056.31;;;18.11;81.81
79527;BME280;68974;47.754;-3.364;2023-08-01T09:23:12;101047.53;;;18.35;81.14
79527;BME280;68974;47.754;-3.364;2023-08-01T09:25:38;101040.81;;;18.53;79.79
79527;BME280;68974;47.754;-3.364;2023-08-01T09:28:15;101049.06;;;18.67;79.63
79527;BME280;68974;47.754;-3.364;2023-08-01T09:30:52;101042.81;;;18.95;79.10
79527;BME280;68974;47.754;-3.364;2023-08-01T09:33:20;101032.59;;;19.17;76.66
79527;BME280;68974;47.754;-3.364;2023-08-01T09:35:46;101036.16;;;19.34;76.78
79527;BME280;68974;47.754;-3.364;2023-08-01T09:38:13;101036.16;;;19.26;76.27
79527;BME280;68974;47.754;-3.364;2023-08-01T09:40:41;101030.06;;;19.50;77.51
79527;BME280;68974;47.754;-3.364;2023-08-01T09:43:07;101019.53;;;19.55;76.17
79527;BME280;68974;47.754;-3.364;2023-08-01T09:45:32;101001.56;;;19.44;75.72
79527;BME280;68974;47.754;-3.364;2023-08-01T09:47:59;101010.28;;;19.34;76.49
79527;BME280;68974;47.754;-3.364;2023-08-01T09:50:25;101019.16;;;19.19;76.71
79527;BME280;68974;47.754;-3.364;2023-08-01T09:52:51;101025.09;;;19.09;76.97
79527;BME280;68974;47.754;-3.364;2023-08-01T09:55:26;101024.75;;;19.01;77.38
79527;BME280;68974;47.754;-3.364;2023-08-01T09:57:55;101033.97;;;18.85;78.26
79527;BME280;68974;47.754;-3.364;2023-08-01T10:00:21;101035.94;;;18.67;78.89
79527;BME280;68974;47.754;-3.364;2023-08-01T10:02:48;101032.69;;;18.65;79.01
79527;BME280;68974;47.754;-3.364;2023-08-01T10:05:16;101027.28;;;18.69;79.71
79527;BME280;68974;47.754;-3.364;2023-08-01T10:07:44;101020.06;;;18.68;79.24
79527;BME280;68974;47.754;-3.364;2023-08-01T10:10:10;101022.34;;;18.74;79.97
79527;BME280;68974;47.754;-3.364;2023-08-01T10:12:37;101025.31;;;18.69;79.00
79527;BME280;68974;47.754;-3.364;2023-08-01T10:15:03;101022.34;;;18.83;78.91
79527;BME280;68974;47.754;-3.364;2023-08-01T10:17:30;101029.69;;;18.87;77.75
79527;BME280;68974;47.754;-3.364;2023-08-01T10:19:56;101026.44;;;18.85;77.28
79527;BME280;68974;47.754;-3.364;2023-08-01T10:22:23;101033.16;;;18.76;77.92
79527;BME280;68974;47.754;-3.364;2023-08-01T10:24:50;101027.28;;;18.69;78.14
79527;BME280;68974;47.754;-3.364;2023-08-01T10:27:19;101024.50;;;18.60;78.12
79527;BME280;68974;47.754;-3.364;2023-08-01T10:29:56;101031.50;;;18.49;78.80
79527;BME280;68974;47.754;-3.364;2023-08-01T10:32:28;101024.13;;;18.53;79.44
79527;BME280;68974;47.754;-3.364;2023-08-01T10:34:54;101021.88;;;18.55;80.09
79527;BME280;68974;47.754;-3.364;2023-08-01T10:37:20;101021.22;;;18.58;78.96
79527;BME280;68974;47.754;-3.364;2023-08-01T10:39:56;101011.41;;;18.69;78.86
79527;BME280;68974;47.754;-3.364;2023-08-01T10:42:21;101020.06;;;18.76;78.37
79527;BME280;68974;47.754;-3.364;2023-08-01T10:44:47;101019.25;;;18.84;77.52
79527;BME280;68974;47.754;-3.364;2023-08-01T10:47:12;101019.88;;;18.98;78.06
79527;BME280;68974;47.754;-3.364;2023-08-01T10:49:39;101023.44;;;19.08;76.60
79527;BME280;68974;47.754;-3.364;2023-08-01T10:52:18;101014.06;;;19.29;77.08
79527;BME280;68974;47.754;-3.364;2023-08-01T10:54:44;101005.19;;;19.44;75.63
79527;BME280;68974;47.754;-3.364;2023-08-01T10:57:15;101009.47;;;19.71;74.19
79527;BME280;68974;47.754;-3.364;2023-08-01T10:59:42;101008.38;;;19.93;74.01
79527;BME280;68974;47.754;-3.364;2023-08-01T11:02:08;101003.00;;;20.09;72.35
79527;BME280;68974;47.754;-3.364;2023-08-01T11:04:33;101010.50;;;20.17;72.42
79527;BME280;68974;47.754;-3.364;2023-08-01T11:06:58;101005.97;;;20.04;73.06
79527;BME280;68974;47.754;-3.364;2023-08-01T11:09:25;101025.03;;;20.02;72.28
79527;BME280;68974;47.754;-3.364;2023-08-01T11:11:52;101019.66;;;19.97;73.15
79527;BME280;68974;47.754;-3.364;2023-08-01T11:14:22;101020.81;;;19.96;72.58
79527;BME280;68974;47.754;-3.364;2023-08-01T11:16:49;101014.28;;;19.92;71.98
79527;BME280;68974;47.754;-3.364;2023-08-01T11:19:25;101011.34;;;19.88;73.40
79527;BME280;68974;47.754;-3.364;2023-08-01T11:21:52;101012.75;;;19.73;74.38
79527;BME280;68974;47.754;-3.364;2023-08-01T11:24:19;101020.66;;;19.63;75.27
79527;BME280;68974;47.754;-3.364;2023-08-01T11:26:46;101013.84;;;19.43;75.25
79527;BME280;68974;47.754;-3.364;2023-08-01T11:29:12;101019.06;;;19.53;75.97
79527;BME280;68974;47.754;-3.364;2023-08-01T11:31:39;101019.53;;;19.55;75.21
79527;BME280;68974;47.754;-3.364;2023-08-01T11:34:05;101010.16;;;19.68;74.91
79527;BME280;68974;47.754;-3.364;2023-08-01T11:36:30;101005.41;;;19.60;75.00
79527;BME280;68974;47.754;-3.364;2023-08-01T11:38:57;101009.47;;;19.71;76.04
79527;BME280;68974;47.754;-3.364;2023-08-01T11:41:24;100992.75;;;19.71;75.49
79527;BME280;68974;47.754;-3.364;2023-08-01T11:43:50;100999.00;;;19.68;75.23
79527;BME280;68974;47.754;-3.364;2023-08-01T11:46:16;100990.16;;;19.66;75.76
79527;BME280;68974;47.754;-3.364;2023-08-01T11:48:45;100998.03;;;19.64;75.35
79527;BME280;68974;47.754;-3.364;2023-08-01T11:51:17;100999.53;;;19.62;76.55
79527;BME280;68974;47.754;-3.364;2023-08-01T11:53:43;100999.06;;;19.51;75.80
79527;BME280;68974;47.754;-3.364;2023-08-01T11:56:08;100998.84;;;19.65;76.15
79527;BME280;68974;47.754;-3.364;2023-08-01T11:58:44;101002.59;;;19.69;75.68
79527;BME280;68974;47.754;-3.364;2023-08-01T12:01:12;100993.03;;;19.78;76.14
79527;BME280;68974;47.754;-3.364;2023-08-01T12:03:46;100997.63;;;19.74;74.67
79527;BME280;68974;47.754;-3.364;2023-08-01T12:06:13;100996.41;;;19.63;74.82
79527;BME280;68974;47.754;-3.364;2023-08-01T12:08:40;100997.78;;;19.49;75.81
79527;BME280;68974;47.754;-3.364;2023-08-01T12:11:06;100993.91;;;19.24;76.60
79527;BME280;68974;47.754;-3.364;2023-08-01T12:13:42;100994.56;;;19.21;77.07
79527;BME280;68974;47.754;-3.364;2023-08-01T12:16:07;100994.56;;;19.21;79.80
79527;BME280;68974;47.754;-3.364;2023-08-01T12:18:32;100985.94;;;19.14;80.01
79527;BME280;68974;47.754;-3.364;2023-08-01T12:20:58;100990.34;;;19.15;79.65
79527;BME280;68974;47.754;-3.364;2023-08-01T12:23:23;100994.31;;;19.05;79.51
79527;BME280;68974;47.754;-3.364;2023-08-01T12:25:49;100995.75;;;19.11;80.34
79527;BME280;68974;47.754;-3.364;2023-08-01T12:28:15;100992.53;;;18.92;80.36
79527;BME280;68974;47.754;-3.364;2023-08-01T12:30:41;101001.88;;;18.87;80.49
79527;BME280;68974;47.754;-3.364;2023-08-01T12:33:10;100988.78;;;18.79;80.44
79527;BME280;68974;47.754;-3.364;2023-08-01T12:35:39;100994.22;;;18.58;82.18